sensor_id;sensor_type;location;lat;lon;timestamp;temperature;humidity
45843;DHT22;31563;51.744;8.252;2023-04-15T00:00:08;24.80;30.30
45843;DHT22;31563;51.744;8.252;2023-04-15T00:02:36;24.70;30.20
45843;DHT22;31563;51.744;8.252;2023-04-15T00:05:05;24.70;30.20
45843;DHT22;31563;51.744;8.252;2023-04-15T00:07:34;24.70;30.30
45843;DHT22;31563;51.744;8.252;2023-04-15T00:10:02;24.70;30.40
45843;DHT22;31563;51.744;8.252;2023-04-15T00:12:31;24.70;30.40
45843;DHT22;31563;51.744;8.252;2023-04-15T00:15:00;24.60;30.30
45843;DHT22;31563;51.744;8.252;2023-04-15T00:17:29;24.60;30.30
45843;DHT22;31563;51.744;8.252;2023-04-15T00:19:57;24.60;30.40
45843;DHT22;31563;51.744;8.252;2023-04-15T00:22:26;24.50;30.40
45843;DHT22;31563;51.744;8.252;2023-04-15T00:24:54;24.50;30.50
45843;DHT22;31563;51.744;8.252;2023-04-15T00:27:23;24.40;30.40
45843;DHT22;31563;51.744;8.252;2023-04-15T00:29:51;24.40;30.40
45843;DHT22;31563;51.744;8.252;2023-04-15T00:32:21;24.40;30.50
45843;DHT22;31563;51.744;8.252;2023-04-15T00:34:49;24.40;30.50
45843;DHT22;31563;51.744;8.252;2023-04-15T00:37:18;24.40;30.50
45843;DHT22;31563;51.744;8.252;2023-04-15T00:39:46;24.40;30.60
45843;DHT22;31563;51.744;8.252;2023-04-15T00:42:14;24.30;30.60
45843;DHT22;31563;51.744;8.252;2023-04-15T00:44:42;24.30;30.60
45843;DHT22;31563;51.744;8.252;2023-04-15T00:47:11;24.20;30.50
45843;DHT22;31563;51.744;8.252;2023-04-15T00:49:40;24.20;30.60
45843;DHT22;31563;51.744;8.252;2023-04-15T00:52:08;24.20;30.60
45843;DHT22;31563;51.744;8.252;2023-04-15T00:54:36;24.20;30.70
45843;DHT22;31563;51.744;8.252;2023-04-15T00:57:05;24.20;30.70
45843;DHT22;31563;51.744;8.252;2023-04-15T00:59:34;24.20;30.70
45843;DHT22;31563;51.744;8.252;2023-04-15T01:02:02;24.10;30.70
45843;DHT22;31563;51.744;8.252;2023-04-15T01:04:30;24.10;30.70
45843;DHT22;31563;51.744;8.252;2023-04-15T01:07:00;24.00;30.70
45843;DHT22;31563;51.744;8.252;2023-04-15T01:09:28;24.00;30.70
45843;DHT22;31563;51.744;8.252;2023-04-15T01:11:56;24.00;30.80
45843;DHT22;31563;51.744;8.252;2023-04-15T01:14:25;23.90;30.70
45843;DHT22;31563;51.744;8.252;2023-04-15T01:16:53;23.90;30.80
45843;DHT22;31563;51.744;8.252;2023-04-15T01:19:21;23.90;30.80
45843;DHT22;31563;51.744;8.252;2023-04-15T01:21:49;23.90;30.90
45843;DHT22;31563;51.744;8.252;2023-04-15T01:24:19;23.90;30.90
45843;DHT22;31563;51.744;8.252;2023-04-15T01:26:49;23.80;30.90
45843;DHT22;31563;51.744;8.252;2023-04-15T01:29:17;23.80;30.90
45843;DHT22;31563;51.744;8.252;2023-04-15T01:31:49;23.70;30.80
45843;DHT22;31563;51.744;8.252;2023-04-15T01:34:18;23.70;30.90
45843;DHT22;31563;51.744;8.252;2023-04-15T01:36:47;23.70;30.90
45843;DHT22;31563;51.744;8.252;2023-04-15T01:39:15;23.70;30.90
45843;DHT22;31563;51.744;8.252;2023-04-15T01:41:43;23.60;30.90
45843;DHT22;31563;51.744;8.252;2023-04-15T01:44:13;23.70;31.00
45843;DHT22;31563;51.744;8.252;2023-04-15T01:46:41;23.60;31.00
45843;DHT22;31563;51.744;8.252;2023-04-15T01:49:09;23.60;30.90
45843;DHT22;31563;51.744;8.252;2023-04-15T01:51:37;23.60;31.10
45843;DHT22;31563;51.744;8.252;2023-04-15T01:54:05;23.50;31.00
45843;DHT22;31563;51.744;8.252;2023-04-15T01:56:33;23.50;31.00
45843;DHT22;31563;51.744;8.252;2023-04-15T01:59:01;23.50;31.00
45843;DHT22;31563;51.744;8.252;2023-04-15T02:01:31;23.50;31.10
45843;DHT22;31563;51.744;8.252;2023-04-15T02:04:00;23.40;31.10
45843;DHT22;31563;51.744;8.252;2023-04-15T02:06:28;23.40;31.00
45843;DHT22;31563;51.744;8.252;2023-04-15T02:08:56;23.40;31.10
45843;DHT22;31563;51.744;8.252;2023-04-15T02:11:25;23.40;31.20
45843;DHT22;31563;51.744;8.252;2023-04-15T02:13:53;23.40;31.80
45843;DHT22;31563;51.744;8.252;2023-04-15T02:16:21;23.40;31.20
45843;DHT22;31563;51.744;8.252;2023-04-15T02:18:50;23.40;31.20
45843;DHT22;31563;51.744;8.252;2023-04-15T02:21:18;23.30;31.20
45843;DHT22;31563;51.744;8.252;2023-04-15T02:23:47;23.30;31.20
45843;DHT22;31563;51.744;8.252;2023-04-15T02:26:15;23.30;31.30
45843;DHT22;31563;51.744;8.252;2023-04-15T02:28:43;23.20;31.30
45843;DHT22;31563;51.744;8.252;2023-04-15T02:31:11;23.20;31.20
45843;DHT22;31563;51.744;8.252;2023-04-15T02:33:39;23.20;31.30
45843;DHT22;31563;51.744;8.252;2023-04-15T02:36:09;23.10;31.30
45843;DHT22;31563;51.744;8.252;2023-04-15T02:38:38;23.10;31.30
45843;DHT22;31563;51.744;8.252;2023-04-15T02:41:08;23.10;31.30
45843;DHT22;31563;51.744;8.252;2023-04-15T02:43:37;23.10;31.40
45843;DHT22;31563;51.744;8.252;2023-04-15T02:46:06;23.00;31.30
45843;DHT22;31563;51.744;8.252;2023-04-15T02:48:34;23.00;31.40
45843;DHT22;31563;51.744;8.252;2023-04-15T02:51:14;23.00;31.40
45843;DHT22;31563;51.744;8.252;2023-04-15T02:53:43;23.00;31.40
45843;DHT22;31563;51.744;8.252;2023-04-15T02:56:11;22.90;31.40
45843;DHT22;31563;51.744;8.252;2023-04-15T02:58:42;22.90;31.40
45843;DHT22;31563;51.744;8.252;2023-04-15T03:01:10;22.90;31.50
45843;DHT22;31563;51.744;8.252;2023-04-15T03:03:38;22.90;31.60
45843;DHT22;31563;51.744;8.252;2023-04-15T03:06:07;22.80;31.50
45843;DHT22;31563;51.744;8.252;2023-04-15T03:08:37;22.80;31.50
45843;DHT22;31563;51.744;8.252;2023-04-15T03:11:05;22.80;31.50
45843;DHT22;31563;51.744;8.252;2023-04-15T03:13:33;22.80;31.60
45843;DHT22;31563;51.744;8.252;2023-04-15T03:16:02;22.80;31.60
45843;DHT22;31563;51.744;8.252;2023-04-15T03:18:30;22.70;31.50
45843;DHT22;31563;51.744;8.252;2023-04-15T03:20:58;22.70;31.60
45843;DHT22;31563;51.744;8.252;2023-04-15T03:23:26;22.70;31.60
45843;DHT22;31563;51.744;8.252;2023-04-15T03:25:56;22.70;31.60
45843;DHT22;31563;51.744;8.252;2023-04-15T03:28:25;22.70;31.60
45843;DHT22;31563;51.744;8.252;2023-04-15T03:30:54;22.70;31.60
45843;DHT22;31563;51.744;8.252;2023-04-15T03:33:22;22.60;31.60
45843;DHT22;31563;51.744;8.252;2023-04-15T03:35:51;22.60;31.60
45843;DHT22;31563;51.744;8.252;2023-04-15T03:38:19;22.60;31.70
45843;DHT22;31563;51.744;8.252;2023-04-15T03:40:47;22.60;31.70
45843;DHT22;31563;51.744;8.252;2023-04-15T03:43:17;22.60;31.70
45843;DHT22;31563;51.744;8.252;2023-04-15T03:45:45;22.60;31.80
45843;DHT22;31563;51.744;8.252;2023-04-15T03:48:13;22.60;31.80
45843;DHT22;31563;51.744;8.252;2023-04-15T03:50:44;22.60;31.80
45843;DHT22;31563;51.744;8.252;2023-04-15T03:53:12;22.70;31.80
45843;DHT22;31563;51.744;8.252;2023-04-15T03:55:40;22.70;31.80
45843;DHT22;31563;51.744;8.252;2023-04-15T03:58:08;22.70;31.70
45843;DHT22;31563;51.744;8.252;2023-04-15T04:00:40;22.80;31.70
45843;DHT22;31563;51.744;8.252;2023-04-15T04:03:08;22.80;31.70
45843;DHT22;31563;51.744;8.252;2023-04-15T04:05:36;22.80;31.70
45843;DHT22;31563;51.744;8.252;2023-04-15T04:08:07;22.80;31.60
45843;DHT22;31563;51.744;8.252;2023-04-15T04:10:35;22.80;31.60
45843;DHT22;31563;51.744;8.252;2023-04-15T04:13:03;22.80;31.60
45843;DHT22;31563;51.744;8.252;2023-04-15T04:15:31;22.80;31.60
45843;DHT22;31563;51.744;8.252;2023-04-15T04:18:00;22.80;31.60
45843;DHT22;31563;51.744;8.252;2023-04-15T04:20:29;22.80;31.50
45843;DHT22;31563;51.744;8.252;2023-04-15T04:22:58;22.80;31.60
45843;DHT22;31563;51.744;8.252;2023-04-15T04:25:26;22.80;31.60
45843;DHT22;31563;51.744;8.252;2023-04-15T04:27:54;22.80;31.60
45843;DHT22;31563;51.744;8.252;2023-04-15T04:30:22;22.80;31.60
45843;DHT22;31563;51.744;8.252;2023-04-15T04:32:50;22.80;31.60
45843;DHT22;31563;51.744;8.252;2023-04-15T04:35:20;22.80;31.60
45843;DHT22;31563;51.744;8.252;2023-04-15T04:37:48;22.90;31.60
45843;DHT22;31563;51.744;8.252;2023-04-15T04:40:16;22.90;31.60
45843;DHT22;31563;51.744;8.252;2023-04-15T04:42:45;22.80;31.50
45843;DHT22;31563;51.744;8.252;2023-04-15T04:45:13;22.90;31.60
45843;DHT22;31563;51.744;8.252;2023-04-15T04:47:41;22.80;31.50
45843;DHT22;31563;51.744;8.252;2023-04-15T04:50:09;22.90;31.60
45843;DHT22;31563;51.744;8.252;2023-04-15T04:52:39;22.80;31.50
45843;DHT22;31563;51.744;8.252;2023-04-15T04:55:07;22.90;31.60
45843;DHT22;31563;51.744;8.252;2023-04-15T04:57:35;22.90;31.60
45843;DHT22;31563;51.744;8.252;2023-04-15T05:00:06;22.90;31.90
45843;DHT22;31563;51.744;8.252;2023-04-15T05:02:35;22.70;32.10
45843;DHT22;31563;51.744;8.252;2023-04-15T05:05:03;22.60;32.30
45843;DHT22;31563;51.744;8.252;2023-04-15T05:07:32;22.40;32.60
45843;DHT22;31563;51.744;8.252;2023-04-15T05:10:01;22.20;33.10
45843;DHT22;31563;51.744;8.252;2023-04-15T05:12:30;22.20;33.30
45843;DHT22;31563;51.744;8.252;2023-04-15T05:14:58;22.10;33.50
45843;DHT22;31563;51.744;8.252;2023-04-15T05:17:26;22.10;33.70
45843;DHT22;31563;51.744;8.252;2023-04-15T05:19:54;22.20;34.50
45843;DHT22;31563;51.744;8.252;2023-04-15T05:22:22;22.30;34.80
45843;DHT22;31563;51.744;8.252;2023-04-15T05:24:50;22.40;34.70
45843;DHT22;31563;51.744;8.252;2023-04-15T05:27:20;22.50;34.50
45843;DHT22;31563;51.744;8.252;2023-04-15T05:29:48;22.60;34.50
45843;DHT22;31563;51.744;8.252;2023-04-15T05:32:16;22.70;35.10
45843;DHT22;31563;51.744;8.252;2023-04-15T05:34:44;22.80;34.50
45843;DHT22;31563;51.744;8.252;2023-04-15T05:37:12;22.80;34.50
45843;DHT22;31563;51.744;8.252;2023-04-15T05:39:41;22.80;34.70
45843;DHT22;31563;51.744;8.252;2023-04-15T05:42:09;22.90;34.60
45843;DHT22;31563;51.744;8.252;2023-04-15T05:44:39;23.00;34.60
45843;DHT22;31563;51.744;8.252;2023-04-15T05:47:07;23.10;34.70
45843;DHT22;31563;51.744;8.252;2023-04-15T05:49:36;23.10;34.80
45843;DHT22;31563;51.744;8.252;2023-04-15T05:52:04;23.10;35.00
45843;DHT22;31563;51.744;8.252;2023-04-15T05:54:33;23.10;35.00
45843;DHT22;31563;51.744;8.252;2023-04-15T05:57:01;23.10;35.20
45843;DHT22;31563;51.744;8.252;2023-04-15T05:59:29;23.20;35.10
45843;DHT22;31563;51.744;8.252;2023-04-15T06:01:59;23.20;35.20
45843;DHT22;31563;51.744;8.252;2023-04-15T06:04:27;23.20;34.20
45843;DHT22;31563;51.744;8.252;2023-04-15T06:06:56;23.00;34.10
45843;DHT22;31563;51.744;8.252;2023-04-15T06:09:24;22.70;34.30
45843;DHT22;31563;51.744;8.252;2023-04-15T06:11:52;22.50;34.50
45843;DHT22;31563;51.744;8.252;2023-04-15T06:14:22;22.40;35.00
45843;DHT22;31563;51.744;8.252;2023-04-15T06:16:54;22.40;35.30
45843;DHT22;31563;51.744;8.252;2023-04-15T06:19:24;22.40;35.20
45843;DHT22;31563;51.744;8.252;2023-04-15T06:21:52;22.30;35.20
45843;DHT22;31563;51.744;8.252;2023-04-15T06:24:20;22.40;35.70
45843;DHT22;31563;51.744;8.252;2023-04-15T06:26:48;22.50;36.20
45843;DHT22;31563;51.744;8.252;2023-04-15T06:29:16;22.60;36.00
45843;DHT22;31563;51.744;8.252;2023-04-15T06:31:46;22.60;35.90
45843;DHT22;31563;51.744;8.252;2023-04-15T06:34:15;22.70;35.80
45843;DHT22;31563;51.744;8.252;2023-04-15T06:36:44;22.90;35.80
45843;DHT22;31563;51.744;8.252;2023-04-15T06:39:12;23.00;35.60
45843;DHT22;31563;51.744;8.252;2023-04-15T06:41:40;23.10;35.50
45843;DHT22;31563;51.744;8.252;2023-04-15T06:44:09;23.20;35.40
45843;DHT22;31563;51.744;8.252;2023-04-15T06:46:37;23.30;35.30
45843;DHT22;31563;51.744;8.252;2023-04-15T06:49:05;23.50;35.20
45843;DHT22;31563;51.744;8.252;2023-04-15T06:51:34;23.60;35.00
45843;DHT22;31563;51.744;8.252;2023-04-15T06:54:04;23.70;35.00
45843;DHT22;31563;51.744;8.252;2023-04-15T06:56:32;23.90;34.80
45843;DHT22;31563;51.744;8.252;2023-04-15T06:59:00;24.00;34.60
45843;DHT22;31563;51.744;8.252;2023-04-15T07:01:29;24.10;34.40
45843;DHT22;31563;51.744;8.252;2023-04-15T07:03:57;24.20;34.20
45843;DHT22;31563;51.744;8.252;2023-04-15T07:06:25;24.20;34.70
45843;DHT22;31563;51.744;8.252;2023-04-15T07:08:54;24.20;34.00
45843;DHT22;31563;51.744;8.252;2023-04-15T07:11:25;24.20;34.00
45843;DHT22;31563;51.744;8.252;2023-04-15T07:13:53;24.20;33.90
45843;DHT22;31563;51.744;8.252;2023-04-15T07:16:21;24.30;33.90
45843;DHT22;31563;51.744;8.252;2023-04-15T07:18:49;24.30;33.90
45843;DHT22;31563;51.744;8.252;2023-04-15T07:21:17;24.30;33.80
45843;DHT22;31563;51.744;8.252;2023-04-15T07:23:45;24.30;33.70
45843;DHT22;31563;51.744;8.252;2023-04-15T07:26:13;24.30;33.70
45843;DHT22;31563;51.744;8.252;2023-04-15T07:28:43;24.30;33.80
45843;DHT22;31563;51.744;8.252;2023-04-15T07:31:12;24.30;33.80
45843;DHT22;31563;51.744;8.252;2023-04-15T07:33:40;24.30;33.80
45843;DHT22;31563;51.744;8.252;2023-04-15T07:36:09;24.40;33.80
45843;DHT22;31563;51.744;8.252;2023-04-15T07:38:37;24.50;33.80
45843;DHT22;31563;51.744;8.252;2023-04-15T07:41:05;24.60;33.60
45843;DHT22;31563;51.744;8.252;2023-04-15T07:43:33;24.70;33.60
45843;DHT22;31563;51.744;8.252;2023-04-15T07:46:03;24.70;33.50
45843;DHT22;31563;51.744;8.252;2023-04-15T07:48:31;24.80;33.50
45843;DHT22;31563;51.744;8.252;2023-04-15T07:51:02;24.90;33.40
45843;DHT22;31563;51.744;8.252;2023-04-15T07:53:30;25.10;33.50
45843;DHT22;31563;51.744;8.252;2023-04-15T07:55:58;25.20;33.30
45843;DHT22;31563;51.744;8.252;2023-04-15T07:58:26;25.30;33.10
45843;DHT22;31563;51.744;8.252;2023-04-15T08:00:55;25.30;33.00
45843;DHT22;31563;51.744;8.252;2023-04-15T08:03:24;25.30;33.10
45843;DHT22;31563;51.744;8.252;2023-04-15T08:05:53;25.20;32.90
45843;DHT22;31563;51.744;8.252;2023-04-15T08:08:21;25.10;33.00
45843;DHT22;31563;51.744;8.252;2023-04-15T08:10:49;25.10;33.10
45843;DHT22;31563;51.744;8.252;2023-04-15T08:13:18;25.10;33.20
45843;DHT22;31563;51.744;8.252;2023-04-15T08:16:19;25.10;33.20
45843;DHT22;31563;51.744;8.252;2023-04-15T08:18:50;25.10;33.30
45843;DHT22;31563;51.744;8.252;2023-04-15T08:21:19;25.10;33.20
45843;DHT22;31563;51.744;8.252;2023-04-15T08:23:49;25.10;33.30
45843;DHT22;31563;51.744;8.252;2023-04-15T08:26:18;25.00;33.30
45843;DHT22;31563;51.744;8.252;2023-04-15T08:28:46;25.00;33.70
45843;DHT22;31563;51.744;8.252;2023-04-15T08:31:16;24.90;33.90
45843;DHT22;31563;51.744;8.252;2023-04-15T08:33:44;24.90;34.00
45843;DHT22;31563;51.744;8.252;2023-04-15T08:36:14;24.80;34.00
45843;DHT22;31563;51.744;8.252;2023-04-15T08:38:43;24.80;34.10
45843;DHT22;31563;51.744;8.252;2023-04-15T08:41:22;24.80;34.10
45843;DHT22;31563;51.744;8.252;2023-04-15T08:43:52;24.70;34.20
45843;DHT22;31563;51.744;8.252;2023-04-15T08:46:21;24.70;35.00
45843;DHT22;31563;51.744;8.252;2023-04-15T08:48:50;24.70;34.40
45843;DHT22;31563;51.744;8.252;2023-04-15T08:51:20;24.60;34.50
45843;DHT22;31563;51.744;8.252;2023-04-15T08:53:51;24.70;34.60
45843;DHT22;31563;51.744;8.252;2023-04-15T08:56:23;24.70;34.60
45843;DHT22;31563;51.744;8.252;2023-04-15T08:58:53;24.80;34.60
45843;DHT22;31563;51.744;8.252;2023-04-15T09:01:22;24.80;34.60
45843;DHT22;31563;51.744;8.252;2023-04-15T09:03:50;24.80;34.60
45843;DHT22;31563;51.744;8.252;2023-04-15T09:06:22;24.80;34.90
45843;DHT22;31563;51.744;8.252;2023-04-15T09:08:51;24.80;35.20
45843;DHT22;31563;51.744;8.252;2023-04-15T09:11:21;24.80;35.30
45843;DHT22;31563;51.744;8.252;2023-04-15T09:13:49;24.90;35.60
45843;DHT22;31563;51.744;8.252;2023-04-15T09:16:17;24.90;35.80
45843;DHT22;31563;51.744;8.252;2023-04-15T09:18:46;24.90;35.80
45843;DHT22;31563;51.744;8.252;2023-04-15T09:21:15;24.90;35.90
45843;DHT22;31563;51.744;8.252;2023-04-15T09:23:56;24.90;35.90
45843;DHT22;31563;51.744;8.252;2023-04-15T09:26:32;24.80;35.90
45843;DHT22;31563;51.744;8.252;2023-04-15T09:29:04;24.80;36.00
45843;DHT22;31563;51.744;8.252;2023-04-15T09:31:34;24.80;36.00
45843;DHT22;31563;51.744;8.252;2023-04-15T09:34:02;24.80;36.00
45843;DHT22;31563;51.744;8.252;2023-04-15T09:36:39;24.80;36.00
45843;DHT22;31563;51.744;8.252;2023-04-15T09:39:19;24.90;36.00
45843;DHT22;31563;51.744;8.252;2023-04-15T09:42:04;24.90;36.00
45843;DHT22;31563;51.744;8.252;2023-04-15T09:44:33;24.90;35.90
45843;DHT22;31563;51.744;8.252;2023-04-15T09:47:02;24.90;36.00
45843;DHT22;31563;51.744;8.252;2023-04-15T09:49:30;24.90;35.90
45843;DHT22;31563;51.744;8.252;2023-04-15T09:51:59;24.90;35.90
45843;DHT22;31563;51.744;8.252;2023-04-15T09:54:35;24.90;35.80
45843;DHT22;31563;51.744;8.252;2023-04-15T09:57:07;24.90;35.80
45843;DHT22;31563;51.744;8.252;2023-04-15T09:59:38;24.80;35.70
45843;DHT22;31563;51.744;8.252;2023-04-15T10:02:06;24.80;35.70
45843;DHT22;31563;51.744;8.252;2023-04-15T10:04:37;24.70;35.70
45843;DHT22;31563;51.744;8.252;2023-04-15T10:07:08;24.70;35.70
45843;DHT22;31563;51.744;8.252;2023-04-15T10:09:38;24.70;35.80
45843;DHT22;31563;51.744;8.252;2023-04-15T10:12:08;24.60;35.80
45843;DHT22;31563;51.744;8.252;2023-04-15T10:14:37;24.60;35.90
45843;DHT22;31563;51.744;8.252;2023-04-15T10:17:06;24.60;35.90
45843;DHT22;31563;51.744;8.252;2023-04-15T10:19:37;24.70;35.80
45843;DHT22;31563;51.744;8.252;2023-04-15T10:22:05;24.70;35.80
45843;DHT22;31563;51.744;8.252;2023-04-15T10:24:34;24.70;35.70
45843;DHT22;31563;51.744;8.252;2023-04-15T10:27:05;24.70;35.70
45843;DHT22;31563;51.744;8.252;2023-04-15T10:29:33;24.60;35.50
45843;DHT22;31563;51.744;8.252;2023-04-15T10:32:02;24.60;35.50
45843;DHT22;31563;51.744;8.252;2023-04-15T10:34:31;24.50;35.50
45843;DHT22;31563;51.744;8.252;2023-04-15T10:37:01;24.60;35.70
45843;DHT22;31563;51.744;8.252;2023-04-15T10:39:40;24.60;35.70
45843;DHT22;31563;51.744;8.252;2023-04-15T10:42:11;24.60;35.60
45843;DHT22;31563;51.744;8.252;2023-04-15T10:44:42;24.70;35.50
45843;DHT22;31563;51.744;8.252;2023-04-15T10:47:12;24.60;35.40
45843;DHT22;31563;51.744;8.252;2023-04-15T10:49:47;24.60;35.50
45843;DHT22;31563;51.744;8.252;2023-04-15T10:52:16;24.60;35.40
45843;DHT22;31563;51.744;8.252;2023-04-15T10:54:45;24.50;35.30
45843;DHT22;31563;51.744;8.252;2023-04-15T10:57:16;24.50;35.50
45843;DHT22;31563;51.744;8.252;2023-04-15T11:00:03;24.40;35.50
45843;DHT22;31563;51.744;8.252;2023-04-15T11:02:44;24.40;35.50
45843;DHT22;31563;51.744;8.252;2023-04-15T11:05:14;24.40;35.50
45843;DHT22;31563;51.744;8.252;2023-04-15T11:07:51;24.40;35.50
45843;DHT22;31563;51.744;8.252;2023-04-15T11:10:49;24.30;35.50
45843;DHT22;31563;51.744;8.252;2023-04-15T11:13:25;24.30;35.50
45843;DHT22;31563;51.744;8.252;2023-04-15T11:15:59;24.20;35.50
45843;DHT22;31563;51.744;8.252;2023-04-15T11:18:30;24.20;35.50
45843;DHT22;31563;51.744;8.252;2023-04-15T11:21:03;24.20;35.60
45843;DHT22;31563;51.744;8.252;2023-04-15T11:23:35;24.20;35.70
45843;DHT22;31563;51.744;8.252;2023-04-15T11:26:05;24.20;35.70
45843;DHT22;31563;51.744;8.252;2023-04-15T11:28:38;24.30;35.60
45843;DHT22;31563;51.744;8.252;2023-04-15T11:31:08;24.20;35.50
45843;DHT22;31563;51.744;8.252;2023-04-15T11:33:44;24.20;35.50
45843;DHT22;31563;51.744;8.252;2023-04-15T11:36:12;24.30;35.50
45843;DHT22;31563;51.744;8.252;2023-04-15T11:38:45;24.20;35.40
45843;DHT22;31563;51.744;8.252;2023-04-15T11:41:13;24.20;35.50
45843;DHT22;31563;51.744;8.252;2023-04-15T11:43:43;24.20;35.60
45843;DHT22;31563;51.744;8.252;2023-04-15T11:46:11;24.20;35.60
45843;DHT22;31563;51.744;8.252;2023-04-15T11:48:42;24.20;35.50
45843;DHT22;31563;51.744;8.252;2023-04-15T11:51:12;24.20;35.50
45843;DHT22;31563;51.744;8.252;2023-04-15T11:53:42;24.20;35.40
45843;DHT22;31563;51.744;8.252;2023-04-15T11:56:17;24.20;35.40
45843;DHT22;31563;51.744;8.252;2023-04-15T11:58:46;24.20;35.50
45843;DHT22;31563;51.744;8.252;2023-04-15T12:01:16;24.10;35.40
45843;DHT22;31563;51.744;8.252;2023-04-15T12:03:45;24.00;35.50
45843;DHT22;31563;51.744;8.252;2023-04-15T12:06:16;24.00;35.50
45843;DHT22;31563;51.744;8.252;2023-04-15T12:08:55;24.00;35.50
45843;DHT22;31563;51.744;8.252;2023-04-15T12:11:30;24.00;35.50
45843;DHT22;31563;51.744;8.252;2023-04-15T12:14:03;24.10;35.60
45843;DHT22;31563;51.744;8.252;2023-04-15T12:16:33;24.00;35.50
45843;DHT22;31563;51.744;8.252;2023-04-15T12:19:15;24.00;35.50
45843;DHT22;31563;51.744;8.252;2023-04-15T12:21:45;24.00;35.50
45843;DHT22;31563;51.744;8.252;2023-04-15T12:24:14;23.90;35.50
45843;DHT22;31563;51.744;8.252;2023-04-15T12:26:48;23.90;35.60
45843;DHT22;31563;51.744;8.252;2023-04-15T12:29:17;23.80;35.60
45843;DHT22;31563;51.744;8.252;2023-04-15T12:31:48;23.80;35.70
45843;DHT22;31563;51.744;8.252;2023-04-15T12:34:18;23.80;35.90
45843;DHT22;31563;51.744;8.252;2023-04-15T12:36:52;23.80;36.00
45843;DHT22;31563;51.744;8.252;2023-04-15T12:39:21;23.80;36.10
45843;DHT22;31563;51.744;8.252;2023-04-15T12:41:50;23.80;36.20
45843;DHT22;31563;51.744;8.252;2023-04-15T12:44:21;23.80;36.30
45843;DHT22;31563;51.744;8.252;2023-04-15T12:46:50;23.70;36.30
45843;DHT22;31563;51.744;8.252;2023-04-15T12:49:19;23.80;36.40
45843;DHT22;31563;51.744;8.252;2023-04-15T12:51:48;23.70;36.30
45843;DHT22;31563;51.744;8.252;2023-04-15T12:54:17;23.70;36.60
45843;DHT22;31563;51.744;8.252;2023-04-15T12:56:45;23.70;36.60
45843;DHT22;31563;51.744;8.252;2023-04-15T12:59:14;23.70;36.70
45843;DHT22;31563;51.744;8.252;2023-04-15T13:01:45;23.70;36.60
45843;DHT22;31563;51.744;8.252;2023-04-15T13:04:14;23.70;36.70
45843;DHT22;31563;51.744;8.252;2023-04-15T13:06:43;23.70;36.60
45843;DHT22;31563;51.744;8.252;2023-04-15T13:09:11;23.70;36.70
45843;DHT22;31563;51.744;8.252;2023-04-15T13:11:39;23.70;36.70
45843;DHT22;31563;51.744;8.252;2023-04-15T13:14:08;23.70;36.80
45843;DHT22;31563;51.744;8.252;2023-04-15T13:16:37;23.70;36.90
45843;DHT22;31563;51.744;8.252;2023-04-15T13:19:07;23.70;36.90
45843;DHT22;31563;51.744;8.252;2023-04-15T13:21:35;23.60;37.00
45843;DHT22;31563;51.744;8.252;2023-04-15T13:24:03;23.70;37.10
45843;DHT22;31563;51.744;8.252;2023-04-15T13:26:33;23.70;37.20
45843;DHT22;31563;51.744;8.252;2023-04-15T13:29:01;23.60;37.10
45843;DHT22;31563;51.744;8.252;2023-04-15T13:31:29;23.60;37.20
45843;DHT22;31563;51.744;8.252;2023-04-15T13:33:58;23.60;37.30
45843;DHT22;31563;51.744;8.252;2023-04-15T13:36:27;23.60;37.40
45843;DHT22;31563;51.744;8.252;2023-04-15T13:38:55;23.50;37.50
45843;DHT22;31563;51.744;8.252;2023-04-15T13:41:24;23.50;37.60
45843;DHT22;31563;51.744;8.252;2023-04-15T13:43:52;23.50;37.60
45843;DHT22;31563;51.744;8.252;2023-04-15T13:46:20;23.60;37.80
45843;DHT22;31563;51.744;8.252;2023-04-15T13:48:48;23.50;37.70
45843;DHT22;31563;51.744;8.252;2023-04-15T13:51:16;23.50;37.70
45843;DHT22;31563;51.744;8.252;2023-04-15T13:53:46;23.50;37.80
45843;DHT22;31563;51.744;8.252;2023-04-15T13:56:14;23.30;39.30
45843;DHT22;31563;51.744;8.252;2023-04-15T13:58:42;23.20;40.00
45843;DHT22;31563;51.744;8.252;2023-04-15T14:01:10;23.20;40.30
45843;DHT22;31563;51.744;8.252;2023-04-15T14:03:38;23.30;40.00
45843;DHT22;31563;51.744;8.252;2023-04-15T14:06:07;23.30;40.60
45843;DHT22;31563;51.744;8.252;2023-04-15T14:08:35;23.30;41.00
45843;DHT22;31563;51.744;8.252;2023-04-15T14:11:05;23.30;40.90
45843;DHT22;31563;51.744;8.252;2023-04-15T14:13:33;23.30;41.00
45843;DHT22;31563;51.744;8.252;2023-04-15T14:16:01;23.30;41.30
45843;DHT22;31563;51.744;8.252;2023-04-15T14:18:30;23.30;41.20
45843;DHT22;31563;51.744;8.252;2023-04-15T14:20:58;23.20;41.30
45843;DHT22;31563;51.744;8.252;2023-04-15T14:23:26;23.30;41.80
45843;DHT22;31563;51.744;8.252;2023-04-15T14:25:54;23.30;41.70
45843;DHT22;31563;51.744;8.252;2023-04-15T14:28:24;23.30;41.70
45843;DHT22;31563;51.744;8.252;2023-04-15T14:30:52;23.20;41.80
45843;DHT22;31563;51.744;8.252;2023-04-15T14:33:20;23.30;41.90
45843;DHT22;31563;51.744;8.252;2023-04-15T14:35:48;23.20;41.80
45843;DHT22;31563;51.744;8.252;2023-04-15T14:38:17;23.10;41.80
45843;DHT22;31563;51.744;8.252;2023-04-15T14:40:48;23.10;41.90
45843;DHT22;31563;51.744;8.252;2023-04-15T14:43:16;23.20;41.90
45843;DHT22;31563;51.744;8.252;2023-04-15T14:45:45;23.10;41.90
45843;DHT22;31563;51.744;8.252;2023-04-15T14:48:14;23.10;41.90
45843;DHT22;31563;51.744;8.252;2023-04-15T14:50:42;23.10;41.90
45843;DHT22;31563;51.744;8.252;2023-04-15T14:53:10;23.10;41.90
45843;DHT22;31563;51.744;8.252;2023-04-15T14:55:38;23.10;42.00
45843;DHT22;31563;51.744;8.252;2023-04-15T14:58:07;23.00;41.50
45843;DHT22;31563;51.744;8.252;2023-04-15T15:00:35;22.80;40.90
45843;DHT22;31563;51.744;8.252;2023-04-15T15:03:07;22.70;41.70
45843;DHT22;31563;51.744;8.252;2023-04-15T15:05:39;22.80;41.90
45843;DHT22;31563;51.744;8.252;2023-04-15T15:08:08;22.80;42.30
45843;DHT22;31563;51.744;8.252;2023-04-15T15:10:37;22.90;42.90
45843;DHT22;31563;51.744;8.252;2023-04-15T15:13:16;22.90;42.90
45843;DHT22;31563;51.744;8.252;2023-04-15T15:15:44;22.80;43.00
45843;DHT22;31563;51.744;8.252;2023-04-15T15:18:14;22.80;43.00
45843;DHT22;31563;51.744;8.252;2023-04-15T15:20:42;22.70;43.00
45843;DHT22;31563;51.744;8.252;2023-04-15T15:23:10;22.80;43.00
45843;DHT22;31563;51.744;8.252;2023-04-15T15:25:38;22.80;43.00
45843;DHT22;31563;51.744;8.252;2023-04-15T15:28:06;22.80;43.00
45843;DHT22;31563;51.744;8.252;2023-04-15T15:30:34;22.80;43.00
45843;DHT22;31563;51.744;8.252;2023-04-15T15:33:02;22.70;42.90
45843;DHT22;31563;51.744;8.252;2023-04-15T15:35:32;22.70;43.00
45843;DHT22;31563;51.744;8.252;2023-04-15T15:38:00;22.70;43.00
45843;DHT22;31563;51.744;8.252;2023-04-15T15:40:29;22.70;43.00
45843;DHT22;31563;51.744;8.252;2023-04-15T15:42:57;22.70;43.00